Tiempo atmosférico en la estación meteorológica de Larraga, Navarra (375 m.)



Fecha
DESCASC
Temp. máxima en grados centígrados (hora)
DESCASC
Temp. mínima en grados centígrados (hora)
DESCASC
Temp. media en grados centígrados
DESCASC
Racha de viento máxima en m/sg (hora)
DESCASC
Velocidad máxima media en intervalos de 10 minutos(hora)
DESCASC
Precipitaciones diarias en mm
DESCASC
Precipitaciones de 00:00 a 06:00 en mm
DESCASC
Precipitaciones de 06:00 a 12:00 en mm
DESCASC
Precipitaciones de 12:00 a 18:00 en mm
DESCASC
Precipitaciones de 18:00 a 24:00 en mm
DESCASC
15-08-2019 26.1 (15:10) 16.1 (23:59) 21.1 13.06 (17:20) 7.78 (16:00) 0 0 0 0 0
14-08-2019 31.1 (16:40) 10.5 (00:00) 20.8 13.06 (18:20) 8.06 (17:20) 0 0 0 0 0
13-08-2019 23.9 (17:10) 13.2 (00:00) 18.5 12.78 (19:20) 7.78 (19:30) 0 0 0 0 0
12-08-2019 23.9 (15:50) 13.5 (00:00) 18.7 15.56 (18:20) 11.39 (18:40) 0 0 0 0 0
11-08-2019 25.8 (15:30) 17 (00:00) 21.4 12.22 (17:20) 7.78 (19:20) 0.6 0 0.6 0 0
10-08-2019 27.9 (17:20) 14.7 (00:00) 21.3 11.67 (21:20) 8.33 (19:20) 0 0 0 0 0
09-08-2019 36.4 (15:10) 18.5 (00:00) 27.5 16.39 (22:00) 10.83 (21:40) 3.8 0 0 0 3.8
08-08-2019 34.9 (18:20) 18.2 (00:00) 26.6 8.33 (01:20) 5.83 (01:20) 0 0 0 0 0
07-08-2019 30.4 (15:10) 19.4 (00:00) 24.9 9.72 (01:10) 6.39 (00:50) 0 0 0 0 0
06-08-2019 32.9 (17:10) 17 (00:00) 25 12.22 (23:00) 8.61 (21:50) 0 0 0 0 0
05-08-2019 33.8 (17:30) 16.5 (00:00) 25.1 13.33 (20:20) 8.61 (19:30) 0 0 0 0 0
04-08-2019 34 (16:50) 17.6 (00:00) 25.8 13.89 (19:20) 8.89 (19:30) 0 0 0 0 0
03-08-2019 35 (17:30) 13.9 (00:00) 24.4 11.11 (20:00) 7.22 (20:30) 0 0 0 0 0
02-08-2019 30 (16:50) 15.6 (00:00) 22.8 11.39 (18:20) 7.5 (19:30) 0 0 0 0 0
01-08-2019 30.4 (17:40) 16.9 (00:00) 23.6 14.17 (20:20) 8.61 (19:50) 1.4 0 1.4 0 0
31-07-2019 28.8 (18:20) 11 (00:00) 19.9 12.22 (22:20) 7.5 (20:50) 0 0 0 0 0
30-07-2019 23.6 (16:10) 14.7 (00:00) 19.2 13.33 (13:20) 8.89 (19:10) 0 0 0 0 0
29-07-2019 31.9 (17:20) 11.1 (00:00) 21.5 15 (20:40) 10.56 (19:00) 0 0 0 0 0
28-07-2019 25 (17:50) 13.7 (00:00) 19.3 13.61 (16:20) 7.22 (18:40) 0 0 0 0 0
27-07-2019 19.8 (18:20) 14.8 (00:00) 17.3 13.06 (15:20) 8.89 (15:30) 0.4 0 0 0.4 0
26-07-2019 26.8 (13:40) 18.2 (00:00) 22.5 13.61 (15:20) 8.61 (15:20) 1 0 0.4 0.6 0
25-07-2019 38.3 (17:40) 22.9 (00:00) 30.6 18.61 (18:30) 12.5 (18:30) 0 0 0 0 0
24-07-2019 38.5 (17:50) 19.3 (00:00) 28.9 13.61 (19:50) 8.89 (19:50) 0 0 0 0 0
23-07-2019 38.9 (17:00) 19.2 (00:00) 29.1 17.22 (20:20) 12.78 (20:20) 0.2 0 0 0 0.2
22-07-2019 38 (17:40) 20.2 (00:00) 29.1 10.28 (17:20) 6.39 (16:50) 0 0 0 0 0
21-07-2019 34.8 (18:20) 17.9 (00:00) 26.3 13.06 (21:20) 8.61 (20:40) 0 0 0 0 0
20-07-2019 33.8 (16:30) 20 (00:00) 26.9 17.5 (19:20) 9.72 (18:10) 0 0 0 0 0
19-07-2019 34.1 (18:40) 12.6 (00:00) 23.3 13.61 (18:20) 5.56 (13:30) 0 0 0 0 0

Gráficas

Temp. máximas Temp. mínimas Temp. medias Precipitaciones Rachas de viento máximas Velocidades máximas media en intervalos de 10 minutos

Datos horarios

Fecha y hora oficial Temperatura (ºC) Velocidad del viento (km/h) Dirección del viento Racha (km/h) Dirección de racha Precipitación (mm) Presión (hPa) Tendencia (hPa) Humedad (%)
2019-08-17 23:00:00 26 18 Norte 29 Norte 0 -- -- 58
2019-08-17 22:00:00 27.4 17 Norte 27 Norte 0 -- -- 54
2019-08-17 21:00:00 29.4 14 Norte 24 Norte 0 -- -- 49
2019-08-17 20:00:00 34 12 Norte 21 Norte 0 -- -- 35
2019-08-17 19:00:00 35 6 Nordeste 14 Sudeste 0 -- -- 30
2019-08-17 18:00:00 35 5 Nordeste 17 Sudeste 0 -- -- 29
2019-08-17 17:00:00 35 9 Sudeste 21 Sur 0 -- -- 30
2019-08-17 16:00:00 34.2 6 Este 18 Este 0 -- -- 33
2019-08-17 15:00:00 33.1 11 Sudeste 24 Sur 0 -- -- 38
2019-08-17 14:00:00 31.4 10 Sudeste 24 Sur 0 -- -- 43
2019-08-17 13:00:00 30.4 14 Sudeste 25 Sudeste 0 -- -- 46
2019-08-17 12:00:00 27.7 10 Sudeste 20 Sudeste 0 -- -- 52
2019-08-17 11:00:00 25.6 10 Sur 19 Sudeste 0 -- -- 55
2019-08-17 10:00:00 22.8 4 Este 12 Noroeste 0 -- -- 55
2019-08-17 09:00:00 18.9 9 Noroeste 12 Noroeste 0 -- -- 54
2019-08-17 08:00:00 16.2 4 Noroeste 14 Norte 0 -- -- 58
2019-08-17 07:00:00 16.1 9 Norte 12 Noroeste 0 -- -- 62
2019-08-17 06:00:00 17.5 4 Noroeste 10 Noroeste 0 -- -- 55
2019-08-17 05:00:00 17.5 7 Noroeste 14 Noroeste 0 -- -- 57
2019-08-17 04:00:00 18.7 8 Noroeste 17 Norte 0 -- -- 60
2019-08-17 03:00:00 19.1 12 Noroeste 24 Noroeste 0 -- -- 63
2019-08-17 02:00:00 20.5 17 Norte 24 Norte 0 -- -- 59
2019-08-17 01:00:00 21.8 17 Norte 36 Norte 0 -- -- 58
2019-08-17 00:00:00 23.3 21 Norte 34 Norte 0 -- -- 56
2019-08-16 23:00:00 24.7 22 Norte 32 Norte 0 -- -- 57
2019-08-16 22:00:00 26.1 14 Norte 28 Norte 0 -- -- 57
2019-08-16 21:00:00 29.3 12 Norte 19 Norte 0 -- -- 43
2019-08-16 20:00:00 32.3 4 Este 13 Sudeste 0 -- -- 31
2019-08-16 19:00:00 32.8 6 Sudeste 14 Sur 0 -- -- 30
2019-08-16 18:00:00 32.9 9 Sudeste 17 Sur 0 -- -- 30
2019-08-16 17:00:00 31.9 6 Este 19 Sudeste 0 -- -- 31
2019-08-16 16:00:00 30.6 10 Sudeste 24 Sudeste 0 -- -- 33
2019-08-16 15:00:00 29.2 10 Sudeste 21 Sudeste 0 -- -- 32
2019-08-16 14:00:00 27.6 10 Este 19 Este 0 -- -- 34
2019-08-16 13:00:00 25 10 Sudeste 19 Sudeste 0 -- -- 42
2019-08-16 12:00:00 23 5 Este 13 Sudeste 0 -- -- 42
2019-08-16 11:00:00 20.4 3 Este 9 Noroeste 0 -- -- 55
2019-08-16 10:00:00 16.9 5 Noroeste 9 Norte 0 -- -- 68
2019-08-16 09:00:00 14.2 4 Norte 10 Noroeste 0 -- -- 77
2019-08-16 08:00:00 11.8 3 Noroeste 9 Norte 0 -- -- 84
2019-08-16 07:00:00 10.7 5 Noroeste 12 Norte 0 -- -- 86
2019-08-16 06:00:00 10.8 4 Oeste 11 Noroeste 0 -- -- 85
2019-08-16 05:00:00 13.2 8 Noroeste 12 Norte 0 -- -- 79
2019-08-16 04:00:00 13 8 Noroeste 15 Noroeste 0 -- -- 79
2019-08-16 03:00:00 13.4 14 Noroeste 22 Noroeste 0 -- -- 80
2019-08-16 02:00:00 13.5 14 Noroeste 21 Noroeste 0 -- -- 77
2019-08-16 01:00:00 15.4 18 Noroeste 23 Noroeste 0 -- -- 72
2019-08-16 00:00:00 16.1 15 Noroeste 21 Norte 0 -- -- 71
2019-08-15 23:00:00 17.1 16 Norte 31 Norte 0 -- -- 68
2019-08-15 22:00:00 18 14 Norte 27 Norte 0 -- -- 63
2019-08-15 21:00:00 19.8 19 Norte 37 Norte 0 -- -- 58
2019-08-15 20:00:00 21.9 25 Norte 39 Norte 0 -- -- 51
2019-08-15 19:00:00 23.7 25 Norte 40 Norte 0 -- -- 47
2019-08-15 18:00:00 24.9 26 Norte 47 Norte 0 -- -- 44
2019-08-15 17:00:00 25.7 25 Norte 38 Norte 0 -- -- 44
2019-08-15 16:00:00 25.7 28 Norte 36 Norte 0 -- -- 44
2019-08-15 15:00:00 25.5 23 Norte 33 Norte 0 -- -- 44
2019-08-15 14:00:00 24.9 19 Norte 36 Noroeste 0 -- -- 46
2019-08-15 13:00:00 24.3 19 Norte 37 Noroeste 0 -- -- 49
2019-08-15 12:00:00 23.3 22 Noroeste 33 Noroeste 0 -- -- 52
2019-08-15 11:00:00 21.5 19 Norte 25 Norte 0 -- -- 63
2019-08-15 10:00:00 21.6 10 Norte 18 Norte 0 -- -- 68
2019-08-15 09:00:00 20.2 11 Norte 15 Norte 0 -- -- 77
2019-08-15 08:00:00 19 7 Norte 9 Norte 0 -- -- 81
2019-08-15 07:00:00 17.9 0 Calma 5 Oeste 0 -- -- 81
2019-08-15 06:00:00 17.3 0 Calma 7 Norte 0 -- -- 81
2019-08-15 05:00:00 17.1 3 Norte 6 Norte 0 -- -- 83
2019-08-15 04:00:00 16.6 0 Calma 6 Oeste 0 -- -- 83
2019-08-15 03:00:00 17.2 2 Oeste 8 Norte 0 -- -- 81
2019-08-15 02:00:00 17.9 7 Noroeste 12 Noroeste 0 -- -- 79
2019-08-15 01:00:00 18.8 6 Noroeste 19 Norte 0 -- -- 75
2019-08-15 00:00:00 19.9 17 Norte 24 Norte 0 -- -- 70
2019-08-14 23:00:00 20.6 17 Norte 33 Norte 0 -- -- 64
2019-08-14 22:00:00 21.8 24 Norte 36 Norte 0 -- -- 57
2019-08-14 21:00:00 23.6 24 Norte 34 Norte 0 -- -- 50
2019-08-14 20:00:00 25.7 27 Norte 42 Norte 0 -- -- 43
2019-08-14 19:00:00 28 25 Norte 47 Norte 0 -- -- 39
2019-08-14 18:00:00 29.5 25 Norte 39 Noroeste 0 -- -- 35
2019-08-14 17:00:00 30.8 22 Norte 35 Norte 0 -- -- 32
2019-08-14 16:00:00 30.7 15 Nordeste 24 Nordeste 0 -- -- 29
2019-08-14 15:00:00 29.6 8 Este 19 Este 0 -- -- 29
2019-08-14 14:00:00 28 6 Norte 18 Noroeste 0 -- -- 31
2019-08-14 13:00:00 25.4 6 Norte 12 Norte 0 -- -- 34
2019-08-14 12:00:00 22.8 4 Norte 9 Noroeste 0 -- -- 38
2019-08-14 11:00:00 19.9 3 Norte 11 Norte 0 -- -- 44
2019-08-14 10:00:00 17.2 3 Oeste 6 Oeste 0 -- -- 53
2019-08-14 09:00:00 14.6 2 Sur 15 Noroeste 0 -- -- 67
2019-08-14 08:00:00 11.5 10 Noroeste 13 Noroeste 0 -- -- 80
2019-08-14 07:00:00 10.6 9 Norte 11 Norte 0 -- -- 82
2019-08-14 06:00:00 10.5 0 Calma 12 Norte 0 -- -- 81
2019-08-14 05:00:00 11.8 7 Norte 10 Noroeste 0 -- -- 80
2019-08-14 04:00:00 12.4 6 Noroeste 10 Noroeste 0 -- -- 76
2019-08-14 03:00:00 12.7 7 Norte 14 Noroeste 0 -- -- 73
2019-08-14 02:00:00 12.9 10 Noroeste 12 Noroeste 0 -- -- 70
2019-08-14 01:00:00 13.3 10 Noroeste 19 Noroeste 0 -- -- 74
2019-08-14 00:00:00 14 10 Noroeste 20 Noroeste -- -- -- 76
2019-08-13 23:00:00 16.3 14 Norte 25 Norte 0 -- -- 68
2019-08-13 22:00:00 17.4 15 Norte 33 Norte 0 -- -- 63
2019-08-13 21:00:00 19.1 19 Norte 37 Norte 0 -- -- 55
2019-08-13 20:00:00 20.9 25 Norte 46 Norte 0 -- -- 50
2019-08-13 19:00:00 22.1 26 Norte 40 Norte 0 -- -- 45
2019-08-13 18:00:00 23.3 22 Norte 36 Norte 0 -- -- 42
2019-08-13 17:00:00 23.6 19 Norte 37 Norte 0 -- -- 41
2019-08-13 16:00:00 23.2 19 Noroeste 34 Noroeste 0 -- -- 41
2019-08-13 15:00:00 22.8 14 Norte 32 Noroeste 0 -- -- 42
2019-08-13 14:00:00 21.9 21 Noroeste 41 Noroeste 0 -- -- 41
2019-08-13 13:00:00 21.3 21 Norte 32 Norte 0 -- -- 48
2019-08-13 12:00:00 20.4 14 Norte 24 Noroeste 0 -- -- 48
2019-08-13 11:00:00 19 8 Noroeste 22 Oeste 0 -- -- 54
2019-08-13 10:00:00 17.3 10 Oeste 19 Oeste 0 -- -- 64
2019-08-13 09:00:00 15.5 11 Oeste 19 Oeste 0 -- -- 70
2019-08-13 08:00:00 14.3 11 Oeste 19 Oeste 0 -- -- 76
2019-08-13 07:00:00 14.1 14 Noroeste 18 Oeste 0 -- -- 75
2019-08-13 06:00:00 14 7 Oeste 13 Noroeste 0 -- -- 75
2019-08-13 05:00:00 13.3 5 Noroeste 13 Oeste 0 -- -- 75
2019-08-13 04:00:00 13.8 6 Oeste 18 Noroeste 0 -- -- 72
2019-08-13 03:00:00 15.2 14 Noroeste 29 Noroeste 0 -- -- 68
2019-08-13 02:00:00 15 19 Noroeste 27 Noroeste 0 -- -- 69
2019-08-13 01:00:00 14.7 13 Noroeste 21 Noroeste 0 -- -- 69
2019-08-13 00:00:00 14.8 17 Noroeste 24 Noroeste 0 -- -- 66
2019-08-12 23:00:00 14.9 7 Noroeste 24 Norte 0 -- -- 71
2019-08-12 22:00:00 15.7 15 Norte 31 Norte 0 -- -- 68
2019-08-12 21:00:00 16.8 22 Noroeste 45 Noroeste 0 -- -- 62
2019-08-12 20:00:00 19 30 Noroeste 49 Noroeste 0 -- -- 54
2019-08-12 19:00:00 19.9 36 Noroeste 56 Noroeste 0 -- -- 52
2019-08-12 18:00:00 22 36 Noroeste 55 Noroeste 0 -- -- 46
2019-08-12 17:00:00 22.3 31 Noroeste 48 Noroeste 0 -- -- 43
2019-08-12 16:00:00 22.9 30 Noroeste 44 Noroeste 0 -- -- 40
2019-08-12 15:00:00 22.4 30 Noroeste 55 Noroeste 0 -- -- 39
2019-08-12 14:00:00 22.2 34 Noroeste 48 Noroeste 0 -- -- 42
2019-08-12 13:00:00 21.2 18 Noroeste 29 Noroeste 0 -- -- 46
2019-08-12 12:00:00 19.9 15 Norte 36 Noroeste 0 -- -- 50
2019-08-12 11:00:00 19.4 27 Noroeste 44 Noroeste 0 -- -- 51
2019-08-12 10:00:00 17.9 22 Noroeste 37 Noroeste 0 -- -- 60
2019-08-12 09:00:00 16.4 20 Noroeste 30 Noroeste 0 -- -- 66
2019-08-12 08:00:00 13.9 15 Oeste 21 Oeste 0 -- -- 76
2019-08-12 07:00:00 13.5 10 Noroeste 19 Oeste 0 -- -- 78
2019-08-12 06:00:00 14.2 16 Oeste 23 Oeste 0 -- -- 78
2019-08-12 05:00:00 14.6 15 Oeste 23 Oeste 0 -- -- 78
2019-08-12 04:00:00 14.9 14 Oeste 22 Oeste 0 -- -- 77
2019-08-12 03:00:00 15.7 15 Noroeste 33 Noroeste 0 -- -- 75
2019-08-12 02:00:00 16.8 24 Noroeste 34 Norte 0 -- -- 66
2019-08-12 01:00:00 16.7 23 Noroeste 32 Noroeste 0 -- -- 70
2019-08-12 00:00:00 17.2 14 Noroeste 26 Norte 0 -- -- 69
2019-08-11 23:00:00 17.8 19 Norte 36 Noroeste 0 -- -- 69
2019-08-11 22:00:00 18.1 17 Norte 30 Noroeste 0 -- -- 68
2019-08-11 21:00:00 19 22 Noroeste 41 Norte 0 -- -- 65
2019-08-11 20:00:00 20.6 27 Norte 43 Norte 0 -- -- 60
2019-08-11 19:00:00 22.5 27 Norte 40 Norte 0 -- -- 53
2019-08-11 18:00:00 22.9 23 Norte 44 Norte 0 -- -- 54
2019-08-11 17:00:00 24.4 20 Norte 38 Noroeste 0 -- -- 49
2019-08-11 16:00:00 24.9 18 Norte 31 Norte 0 -- -- 46
2019-08-11 15:00:00 25 18 Norte 40 Noroeste 0 -- -- 51
2019-08-11 14:00:00 24 17 Norte 27 Norte 0 -- -- 56
2019-08-11 13:00:00 23.6 12 Norte 23 Norte 0 -- -- 57
2019-08-11 12:00:00 22 10 Nordeste 24 Norte 0 -- -- 65
2019-08-11 11:00:00 20 10 Norte 16 Norte 0 -- -- 73
2019-08-11 10:00:00 19.1 14 Norte 24 Noroeste 0 -- -- 79
2019-08-11 09:00:00 17 13 Noroeste 19 Oeste 0.4 -- -- 90
2019-08-11 08:00:00 17.8 17 Oeste 36 Oeste 0.2 -- -- 81
2019-08-11 07:00:00 18 24 Oeste 31 Oeste 0 -- -- 79
2019-08-11 06:00:00 17.8 9 Noroeste 14 Noroeste 0 -- -- 82
2019-08-11 05:00:00 17.6 5 Noroeste 8 Norte 0 -- -- 84
2019-08-11 04:00:00 17.5 5 Noroeste 21 Noroeste 0 -- -- 83
2019-08-11 03:00:00 17.6 9 Noroeste 14 Noroeste 0 -- -- 82
2019-08-11 02:00:00 17.7 10 Noroeste 27 Noroeste 0 -- -- 83
2019-08-11 01:00:00 18.5 17 Noroeste 32 Norte 0 -- -- 78
2019-08-11 00:00:00 18.8 24 Norte 36 Noroeste 0 -- -- 76
2019-08-10 23:00:00 19.2 23 Noroeste 37 Noroeste 0 -- -- 72
2019-08-10 22:00:00 19.5 21 Norte 42 Norte 0 -- -- 71
2019-08-10 21:00:00 21.6 18 Norte 35 Norte 0 -- -- 64
2019-08-10 20:00:00 23.7 24 Norte 39 Norte 0 -- -- 57
2019-08-10 19:00:00 25.4 26 Norte 39 Norte 0 -- -- 51
2019-08-10 18:00:00 26.5 27 Norte 39 Norte 0 -- -- 47
2019-08-10 17:00:00 27.5 20 Norte 34 Norte 0 -- -- 45
2019-08-10 16:00:00 27.2 20 Nordeste 36 Nordeste 0 -- -- 44
2019-08-10 15:00:00 27.2 17 Nordeste 36 Nordeste 0 -- -- 45
2019-08-10 14:00:00 26.2 14 Nordeste 27 Norte 0 -- -- 48
2019-08-10 13:00:00 25 13 Norte 23 Norte 0 -- -- 54
2019-08-10 12:00:00 24.4 12 Nordeste 20 Norte 0 -- -- 61
2019-08-10 11:00:00 22.4 8 Norte 16 Noroeste 0 -- -- 67
2019-08-10 10:00:00 20 9 Noroeste 13 Noroeste 0 -- -- 76
2019-08-10 09:00:00 17.6 5 Noroeste 6 Noroeste 0 -- -- 83
2019-08-10 08:00:00 16 0 Calma 12 Noroeste 0 -- -- 88
2019-08-10 07:00:00 15.2 5 Noroeste 10 Noroeste 0 -- -- 87
2019-08-10 06:00:00 15 6 Noroeste 12 Noroeste 0 -- -- 86
2019-08-10 05:00:00 15 8 Noroeste 14 Noroeste 0 -- -- 88
2019-08-10 04:00:00 15.4 10 Noroeste 14 Noroeste 0 -- -- 87
2019-08-10 03:00:00 16 12 Noroeste 17 Norte 0 -- -- 90
2019-08-10 02:00:00 16.3 9 Noroeste 14 Noroeste 0 -- -- 89
2019-08-10 01:00:00 17.2 10 Noroeste 18 Noroeste 0 -- -- 86
2019-08-10 00:00:00 18.5 9 Norte 17 Norte 0 -- -- 83
2019-08-09 23:00:00 19.5 9 Norte 39 Oeste 1.6 -- -- 75
2019-08-09 22:00:00 21.4 36 Noroeste 59 Oeste 0 -- -- 59
2019-08-09 21:00:00 24.8 20 Oeste 49 Oeste 2.2 -- -- 52
2019-08-09 20:00:00 30 28 Oeste 53 Oeste 0 -- -- 44
2019-08-09 19:00:00 31.3 18 Oeste 34 Oeste 0 -- -- 43
2019-08-09 18:00:00 32.4 21 Oeste 37 Oeste 0 -- -- 40
2019-08-09 17:00:00 32.9 28 Oeste 39 Oeste 0 -- -- 39
2019-08-09 16:00:00 35.5 17 Oeste 38 Oeste 0 -- -- 32
2019-08-09 15:00:00 35.1 22 Oeste 40 Oeste 0 -- -- 33
2019-08-09 14:00:00 34.3 18 Oeste 37 Oeste 0 -- -- 32
2019-08-09 13:00:00 33.5 8 Sur 24 Sudeste 0 -- -- 33
2019-08-09 12:00:00 32.1 10 Sur 18 Sudeste 0 -- -- 37
2019-08-09 11:00:00 30.4 8 Sudeste 19 Sudeste 0 -- -- 42
2019-08-09 10:00:00 28.3 15 Sudeste 23 Sudeste 0 -- -- 48
2019-08-09 09:00:00 25.9 5 Sur 16 Este 0 -- -- 54
2019-08-09 08:00:00 22.2 5 Sur 13 Sudeste 0 -- -- 64
2019-08-09 07:00:00 20.6 4 Sudeste 10 Sudeste 0 -- -- 69
2019-08-09 06:00:00 21.3 5 Sur 12 Sudeste 0 -- -- 65
2019-08-09 05:00:00 23.2 8 Sudeste 13 Sudeste 0 -- -- 59
2019-08-09 04:00:00 24.3 4 Sur 11 Sudeste 0 -- -- 56
2019-08-09 03:00:00 25.8 0 Calma 13 Este 0 -- -- 51
2019-08-09 02:00:00 25.9 7 Nordeste 9 Noroeste 0 -- -- 52
2019-08-09 01:00:00 27.5 6 Sur 31 Sudeste 0 -- -- 47
2019-08-09 00:00:00 28.8 19 Sudeste 29 Este 0 -- -- 43
2019-08-08 23:00:00 28 10 Este 15 Sudeste 0 -- -- 49
2019-08-08 22:00:00 28.8 10 Sudeste 16 Sudeste 0 -- -- 46
2019-08-08 21:00:00 31.8 9 Este 12 Este 0 -- -- 40
2019-08-08 20:00:00 33.7 9 Este 20 Sudeste 0 -- -- 35
2019-08-08 19:00:00 34.6 14 Este 23 Sudeste 0 -- -- 33
2019-08-08 18:00:00 34 5 Este 20 Este 0 -- -- 34
2019-08-08 17:00:00 33.9 9 Sudeste 27 Sudeste 0 -- -- 34
2019-08-08 16:00:00 34 17 Sudeste 27 Sudeste 0 -- -- 34
2019-08-08 15:00:00 33.1 8 Sur 28 Este 0 -- -- 35
2019-08-08 14:00:00 31.6 14 Sudeste 27 Sur 0 -- -- 37
2019-08-08 13:00:00 30.5 13 Sur 23 Sur 0 -- -- 40
2019-08-08 12:00:00 28.7 13 Sudeste 20 Sudeste 0 -- -- 43
2019-08-08 11:00:00 27.2 7 Sudeste 14 Sudeste 0 -- -- 47
2019-08-08 10:00:00 25.3 8 Sudeste 13 Sur 0 -- -- 52
2019-08-08 09:00:00 21.8 2 Sudoeste 8 Sur 0 -- -- 67
2019-08-08 08:00:00 19.3 3 Sur 8 Sudoeste 0 -- -- 76
2019-08-08 07:00:00 18.4 4 Sudoeste 8 Sudoeste 0 -- -- 80
2019-08-08 06:00:00 19.5 0 Calma 7 Sur 0 -- -- 74
2019-08-08 05:00:00 20.3 4 Sudeste 8 Sudoeste 0 -- -- 72
2019-08-08 04:00:00 21.9 5 Noroeste 8 Norte 0 -- -- 65
2019-08-08 03:00:00 22.5 0 Calma 14 Noroeste 0 -- -- 63
2019-08-08 02:00:00 21.8 6 Norte 30 Oeste 0 -- -- 66
2019-08-08 01:00:00 23.7 7 Sudoeste 18 Oeste 0 -- -- 53
2019-08-08 00:00:00 24.2 3 Sudoeste 14 Noroeste 0 -- -- 50
2019-08-07 23:00:00 25.1 10 Noroeste 24 Oeste 0 -- -- 46
2019-08-07 22:00:00 25.2 9 Noroeste 16 Noroeste 0 -- -- 56
2019-08-07 21:00:00 27.5 6 Norte 12 Noroeste 0 -- -- 47
2019-08-07 20:00:00 27.5 11 Noroeste 35 Oeste 0 -- -- 49
2019-08-07 19:00:00 28.9 13 Oeste 28 Oeste 0 -- -- 43
2019-08-07 18:00:00 29.6 9 Norte 16 Norte 0 -- -- 39
2019-08-07 17:00:00 30 10 Norte 19 Norte 0 -- -- 39
2019-08-07 16:00:00 30.1 11 Nordeste 23 Oeste 0 -- -- 38
2019-08-07 15:00:00 30.1 12 Nordeste 26 Nordeste 0 -- -- 39
2019-08-07 14:00:00 28.7 13 Nordeste 23 Nordeste 0 -- -- 42
2019-08-07 13:00:00 26.5 10 Norte 23 Norte 0 -- -- 50
2019-08-07 12:00:00 26.9 10 Nordeste 17 Este 0 -- -- 50
2019-08-07 11:00:00 24.5 12 Norte 17 Norte 0 -- -- 57
2019-08-07 10:00:00 22.6 3 Norte 14 Norte 0 -- -- 63
2019-08-07 09:00:00 20.6 8 Norte 12 Norte 0 -- -- 71
2019-08-07 08:00:00 19.6 7 Norte 14 Noroeste 0 -- -- 75
2019-08-07 07:00:00 19.7 10 Noroeste 16 Noroeste 0 -- -- 71
2019-08-07 06:00:00 19.8 13 Oeste 18 Oeste 0 -- -- 69
2019-08-07 05:00:00 19.4 6 Oeste 15 Norte 0 -- -- 73
2019-08-07 04:00:00 20.3 10 Norte 15 Norte 0 -- -- 71
2019-08-07 03:00:00 19.9 9 Noroeste 16 Noroeste 0 -- -- 75
2019-08-07 02:00:00 20.3 8 Noroeste 35 Norte 0 -- -- 74
2019-08-07 01:00:00 21.1 21 Norte 33 Norte 0 -- -- 73
2019-08-07 00:00:00 21.9 18 Noroeste 33 Noroeste 0 -- -- 69
2019-08-06 23:00:00 23 24 Noroeste 44 Noroeste 0 -- -- 65
2019-08-06 22:00:00 23.9 27 Norte 40 Norte 0 -- -- 64
2019-08-06 21:00:00 25.6 24 Norte 37 Norte 0 -- -- 64
2019-08-06 20:00:00 27.9 24 Norte 42 Norte 0 -- -- 60
2019-08-06 19:00:00 31.2 19 Norte 27 Norte 0 -- -- 50
2019-08-06 18:00:00 32.4 8 Nordeste 14 Nordeste 0 -- -- 35
2019-08-06 17:00:00 32.5 6 Este 13 Este 0 -- -- 36
2019-08-06 16:00:00 32.1 5 Noroeste 17 Este 0 -- -- 38
2019-08-06 15:00:00 31.2 6 Nordeste 18 Sudeste 0 -- -- 41
2019-08-06 14:00:00 29.1 6 Este 20 Este 0 -- -- 47
2019-08-06 13:00:00 28.6 10 Sudeste 21 Sudeste 0 -- -- 48
2019-08-06 12:00:00 26.7 7 Sur 21 Sudeste 0 -- -- 53
2019-08-06 11:00:00 25 6 Este 13 Sudeste 0 -- -- 60
2019-08-06 10:00:00 22.6 4 Noroeste 12 Oeste 0 -- -- 68
2019-08-06 09:00:00 20.4 8 Oeste 12 Oeste 0 -- -- 75
2019-08-06 08:00:00 18 5 Oeste 13 Noroeste 0 -- -- 83
2019-08-06 07:00:00 17.2 8 Noroeste 13 Noroeste 0 -- -- 85
2019-08-06 06:00:00 17.5 10 Noroeste 13 Noroeste 0 -- -- 83
2019-08-06 05:00:00 17.9 9 Noroeste 18 Noroeste 0 -- -- 81
2019-08-06 04:00:00 18.4 9 Noroeste 13 Noroeste 0 -- -- 79
2019-08-06 03:00:00 19.1 5 Noroeste 17 Noroeste 0 -- -- 77
2019-08-06 02:00:00 19.5 12 Noroeste 22 Noroeste 0 -- -- 76
2019-08-06 01:00:00 19.8 11 Noroeste 22 Noroeste 0 -- -- 76
2019-08-06 00:00:00 20.5 15 Noroeste 37 Norte 0 -- -- 77
2019-08-05 23:00:00 21 25 Norte 46 Norte 0 -- -- 76
2019-08-05 22:00:00 21.3 25 Norte 46 Norte 0 -- -- 75
2019-08-05 21:00:00 22.7 29 Norte 48 Norte 0 -- -- 70
2019-08-05 20:00:00 25.3 28 Norte 42 Norte 0 -- -- 62
2019-08-05 19:00:00 29.4 26 Norte 37 Norte 0 -- -- 52
2019-08-05 18:00:00 32.7 22 Norte 28 Norte 0 -- -- 44
2019-08-05 17:00:00 33.4 6 Noroeste 24 Sur 0 -- -- 36
2019-08-05 16:00:00 32.1 9 Este 19 Este -- -- -- 40
2019-08-05 15:00:00 31 8 Sudeste 24 Sudeste 0 -- -- 44
2019-08-05 14:00:00 29.6 8 Sudeste 19 Este 0 -- -- 48
2019-08-05 13:00:00 27.9 4 Este 13 Sudeste 0 -- -- 52
2019-08-05 12:00:00 26.3 5 Sudeste 13 Noroeste 0 -- -- 54
2019-08-05 11:00:00 23.6 10 Noroeste 17 Norte 0 -- -- 65
2019-08-05 10:00:00 22.2 9 Norte 15 Noroeste 0 -- -- 69
2019-08-05 09:00:00 20.3 12 Noroeste 17 Noroeste 0 -- -- 73
2019-08-05 08:00:00 17.6 8 Noroeste 13 Noroeste 0 -- -- 83
2019-08-05 07:00:00 16.7 9 Noroeste 14 Noroeste 0 -- -- 85
2019-08-05 06:00:00 16.9 8 Noroeste 14 Noroeste 0 -- -- 85
2019-08-05 05:00:00 17.4 9 Noroeste 14 Noroeste 0 -- -- 83
2019-08-05 04:00:00 17.5 10 Noroeste 13 Noroeste 0 -- -- 84
2019-08-05 03:00:00 18.4 12 Noroeste 22 Noroeste 0 -- -- 81
2019-08-05 02:00:00 19.2 12 Noroeste 32 Noroeste 0 -- -- 79
2019-08-05 01:00:00 19.7 18 Noroeste 24 Noroeste 0 -- -- 78
2019-08-05 00:00:00 20.3 17 Norte 38 Noroeste 0 -- -- 75
2019-08-04 23:00:00 20.9 21 Norte 34 Norte 0 -- -- 73
2019-08-04 22:00:00 21.5 23 Norte 42 Norte 0 -- -- 72
2019-08-04 21:00:00 22.7 27 Norte 45 Norte 0 -- -- 69
2019-08-04 20:00:00 25.1 27 Norte 50 Norte 0 -- -- 62
2019-08-04 19:00:00 28.3 29 Norte 42 Norte 0 -- -- 55
2019-08-04 18:00:00 31.6 27 Norte 35 Norte 0 -- -- 47
2019-08-04 17:00:00 34 12 Noroeste 21 Noroeste 0 -- -- 32
2019-08-04 16:00:00 32.6 10 Noroeste 19 Noroeste 0 -- -- 37
2019-08-04 15:00:00 31.1 7 Oeste 20 Este 0 -- -- 42
2019-08-04 14:00:00 30.4 9 Sudeste 20 Sudeste 0 -- -- 44
2019-08-04 13:00:00 29.1 6 Sudeste 16 Oeste 0 -- -- 46
2019-08-04 12:00:00 27.1 5 Norte 16 Noroeste 0 -- -- 52
2019-08-04 11:00:00 25.4 11 Noroeste 20 Norte 0 -- -- 58
2019-08-04 10:00:00 23.1 15 Norte 22 Norte 0 -- -- 69
2019-08-04 09:00:00 21 12 Noroeste 19 Norte 0 -- -- 78
2019-08-04 08:00:00 18.1 7 Noroeste 12 Noroeste 0 -- -- 86
2019-08-04 07:00:00 17.9 12 Noroeste 21 Noroeste 0 -- -- 86
2019-08-04 06:00:00 19.1 15 Norte 23 Norte 0 -- -- 84
2019-08-04 05:00:00 18.8 9 Noroeste 18 Noroeste 0 -- -- 82
2019-08-04 04:00:00 19.2 10 Noroeste 18 Norte 0 -- -- 82
2019-08-04 03:00:00 20 10 Noroeste 15 Noroeste 0 -- -- 80
2019-08-04 02:00:00 21.4 12 Noroeste 44 Norte 0 -- -- 76
2019-08-04 01:00:00 23.4 14 Norte 38 Norte 0 -- -- 69
2019-08-04 00:00:00 24.5 19 Norte 33 Norte 0 -- -- 65
2019-08-03 23:00:00 25.2 15 Norte 33 Norte 0 -- -- 64
2019-08-03 22:00:00 26.2 19 Norte 37 Norte 0 -- -- 61
2019-08-03 21:00:00 28 22 Norte 37 Norte 0 -- -- 59
2019-08-03 20:00:00 31 26 Norte 40 Norte 0 -- -- 49
2019-08-03 19:00:00 34.6 8 Noroeste 15 Noroeste 0 -- -- 27
2019-08-03 18:00:00 34.4 6 Norte 19 Norte 0 -- -- 28
2019-08-03 17:00:00 34.4 7 Sudeste 20 Nordeste 0 -- -- 28
2019-08-03 16:00:00 33.6 13 Sudeste 20 Sudeste 0 -- -- 30
2019-08-03 15:00:00 32.2 7 Este 29 Sudeste 0 -- -- 34
2019-08-03 14:00:00 30.7 11 Este 26 Sudeste 0 -- -- 38
2019-08-03 13:00:00 29.3 16 Sudeste 26 Sudeste 0 -- -- 41
2019-08-03 12:00:00 26.9 11 Este 21 Sudeste 0 -- -- 47
2019-08-03 11:00:00 24.3 5 Este 13 Norte 0 -- -- 53
2019-08-03 10:00:00 20.9 9 Norte 14 Noroeste 0 -- -- 69
2019-08-03 09:00:00 17.8 8 Norte 12 Noroeste 0 -- -- 81
2019-08-03 08:00:00 15.2 3 Noroeste 12 Noroeste 0 -- -- 84
2019-08-03 07:00:00 14.1 0 Calma 11 Noroeste 0 -- -- 86
2019-08-03 06:00:00 14.3 11 Noroeste 14 Noroeste 0 -- -- 84
2019-08-03 05:00:00 15.1 5 Noroeste 13 Noroeste 0 -- -- 84
2019-08-03 04:00:00 15.5 12 Noroeste 18 Noroeste 0 -- -- 85
2019-08-03 03:00:00 17.3 12 Norte 20 Norte 0 -- -- 82
2019-08-03 02:00:00 16.9 11 Norte 15 Norte 0 -- -- 83
2019-08-03 01:00:00 18.5 6 Noroeste 23 Noroeste 0 -- -- 74
2019-08-03 00:00:00 19.6 12 Noroeste 27 Norte 0 -- -- 76
2019-08-02 23:00:00 21.1 19 Norte 26 Norte 0 -- -- 70
2019-08-02 22:00:00 22.5 13 Norte 29 Norte 0 -- -- 63
2019-08-02 21:00:00 24.7 18 Norte 31 Norte 0 -- -- 57
2019-08-02 20:00:00 26.5 21 Norte 38 Norte 0 -- -- 53
2019-08-02 19:00:00 28.1 25 Norte 41 Norte 0 -- -- 47
2019-08-02 18:00:00 29.3 25 Norte 34 Norte 0 -- -- 44
2019-08-02 17:00:00 29.8 23 Norte 37 Norte 0 -- -- 42
2019-08-02 16:00:00 29.3 22 Norte 31 Nordeste 0 -- -- 43
2019-08-02 15:00:00 28.4 20 Norte 31 Norte 0 -- -- 45
2019-08-02 14:00:00 27.1 16 Norte 26 Norte 0 -- -- 46
2019-08-02 13:00:00 25.9 14 Norte 23 Norte 0 -- -- 50
2019-08-02 12:00:00 24.4 13 Norte 25 Nordeste 0 -- -- 54
2019-08-02 11:00:00 22.8 14 Norte 23 Norte 0 -- -- 60
2019-08-02 10:00:00 21.6 13 Norte 21 Noroeste 0 -- -- 65
2019-08-02 09:00:00 19.5 13 Noroeste 17 Noroeste 0 -- -- 74
2019-08-02 08:00:00 17 8 Noroeste 14 Oeste 0 -- -- 84
2019-08-02 07:00:00 15.6 6 Noroeste 13 Noroeste 0 -- -- 88
2019-08-02 06:00:00 15.7 8 Noroeste 14 Oeste 0 -- -- 89
2019-08-02 05:00:00 16.1 12 Noroeste 18 Noroeste 0 -- -- 88
2019-08-02 04:00:00 16.8 11 Noroeste 22 Noroeste 0 -- -- 86
2019-08-02 03:00:00 17.5 16 Oeste 22 Noroeste 0 -- -- 84
2019-08-02 02:00:00 17.7 12 Noroeste 26 Noroeste 0 -- -- 82
2019-08-02 01:00:00 18.3 17 Noroeste 31 Noroeste 0 -- -- 80
2019-08-02 00:00:00 19.3 18 Noroeste 29 Noroeste 0 -- -- 77
2019-08-01 23:00:00 19.4 15 Noroeste 34 Noroeste 0 -- -- 77
2019-08-01 22:00:00 19.9 22 Norte 45 Norte 0 -- -- 75
2019-08-01 21:00:00 21.2 24 Norte 51 Norte 0 -- -- 71
2019-08-01 20:00:00 23.3 29 Norte 42 Norte 0 -- -- 67
2019-08-01 19:00:00 27.5 25 Norte 39 Norte 0 -- -- 57
2019-08-01 18:00:00 30.1 11 Noroeste 21 Noroeste 0 -- -- 44
2019-08-01 17:00:00 29.7 6 Nordeste 18 Norte 0 -- -- 46
2019-08-01 16:00:00 29.1 11 Sudeste 22 Sudeste 0 -- -- 48
2019-08-01 15:00:00 27.7 8 Sudeste 22 Sudeste 0 -- -- 53
2019-08-01 14:00:00 26.9 11 Sur 24 Sur 0 -- -- 54
2019-08-01 13:00:00 25.4 10 Sudeste 22 Sudeste 0 -- -- 56
2019-08-01 12:00:00 22.5 5 Sudeste 15 Este 0 -- -- 68
2019-08-01 11:00:00 19.5 10 Sudeste 24 Norte 0 -- -- 82
2019-08-01 10:00:00 17 19 Norte 28 Norte 1.4 -- -- 86
2019-08-01 09:00:00 18.2 17 Norte 36 Norte 0 -- -- 76
2019-08-01 08:00:00 18.3 15 Nordeste 32 Norte 0 -- -- 76
2019-08-01 07:00:00 17 14 Norte 22 Noroeste 0 -- -- 81
2019-08-01 06:00:00 17.4 12 Noroeste 22 Noroeste 0 -- -- 77
2019-08-01 05:00:00 17.1 12 Norte 25 Norte 0 -- -- 78
2019-08-01 04:00:00 17.5 14 Norte 26 Norte 0 -- -- 76
2019-08-01 03:00:00 17.9 17 Norte 29 Norte 0 -- -- 74
2019-08-01 02:00:00 18.3 19 Norte 36 Norte 0 -- -- 72
2019-08-01 01:00:00 18.6 23 Norte 42 Norte 0 -- -- 71
2019-08-01 00:00:00 18.9 25 Norte 37 Norte 0 -- -- 70
2019-07-31 23:00:00 19.5 23 Norte 44 Norte 0 -- -- 68
2019-07-31 22:00:00 20.4 23 Norte 38 Norte 0 -- -- 64
2019-07-31 21:00:00 22 25 Norte 39 Norte 0 -- -- 58
2019-07-31 20:00:00 24.2 23 Norte 35 Norte 0 -- -- 52
2019-07-31 19:00:00 26.6 21 Norte 31 Norte 0 -- -- 43
2019-07-31 18:00:00 28.1 13 Este 26 Sudeste 0 -- -- 30
2019-07-31 17:00:00 27.9 9 Sudeste 22 Sudeste 0 -- -- 29
2019-07-31 16:00:00 26.8 8 Sudeste 22 Sur 0 -- -- 29
2019-07-31 15:00:00 26.2 8 Este 18 Nordeste 0 -- -- 34
2019-07-31 14:00:00 24.8 10 Norte 22 Norte 0 -- -- 38
2019-07-31 13:00:00 23.5 13 Nordeste 21 Noroeste 0 -- -- 40
2019-07-31 12:00:00 21.4 10 Norte 21 Nordeste 0 -- -- 42
2019-07-31 11:00:00 19.8 14 Norte 23 Noroeste 0 -- -- 51
2019-07-31 10:00:00 17.7 8 Noroeste 14 Noroeste 0 -- -- 58
2019-07-31 09:00:00 15.5 5 Noroeste 12 Noroeste 0 -- -- 68
2019-07-31 08:00:00 12.9 5 Oeste 21 Noroeste 0 -- -- 80
2019-07-31 07:00:00 11.7 15 Noroeste 23 Oeste 0 -- -- 83
2019-07-31 06:00:00 11.6 11 Noroeste 22 Noroeste 0 -- -- 82
2019-07-31 05:00:00 11 11 Noroeste 19 Noroeste 0 -- -- 86
2019-07-31 04:00:00 12.1 12 Noroeste 17 Noroeste 0 -- -- 83
2019-07-31 03:00:00 11.4 8 Noroeste 15 Noroeste 0 -- -- 83
2019-07-31 02:00:00 12.5 8 Noroeste 14 Noroeste 0 -- -- 77
2019-07-31 01:00:00 13.9 11 Norte 21 Norte 0 -- -- 75
2019-07-31 00:00:00 15.1 15 Noroeste 28 Noroeste 0 -- -- 70
2019-07-30 23:00:00 16 19 Norte 39 Norte 0 -- -- 67
2019-07-30 22:00:00 16.7 24 Norte 42 Norte 0 -- -- 61
2019-07-30 21:00:00 18.1 30 Norte 46 Noroeste 0 -- -- 55
2019-07-30 20:00:00 19.6 30 Norte 46 Norte 0 -- -- 52
2019-07-30 19:00:00 21 31 Norte 45 Norte 0 -- -- 48
2019-07-30 18:00:00 22.7 23 Norte 44 Norte 0 -- -- 42
2019-07-30 17:00:00 23.2 27 Norte 40 Norte 0 -- -- 42
2019-07-30 16:00:00 23.4 21 Norte 36 Norte 0 -- -- 42
2019-07-30 15:00:00 22.2 18 Norte 31 Norte 0 -- -- 44
2019-07-30 14:00:00 22.2 18 Norte 48 Norte 0 -- -- 46
2019-07-30 13:00:00 21.5 17 Norte 28 Norte 0 -- -- 48
2019-07-30 12:00:00 21.3 13 Norte 27 Nordeste 0 -- -- 49
2019-07-30 11:00:00 19.9 13 Norte 31 Noroeste 0 -- -- 55
2019-07-30 10:00:00 19 18 Noroeste 30 Noroeste 0 -- -- 57
2019-07-30 09:00:00 17.9 19 Noroeste 28 Noroeste 0 -- -- 63
2019-07-30 08:00:00 16.2 9 Noroeste 15 Noroeste 0 -- -- 71
2019-07-30 07:00:00 15.6 12 Noroeste 19 Noroeste 0 -- -- 73
2019-07-30 06:00:00 15.5 12 Noroeste 26 Noroeste 0 -- -- 75
2019-07-30 05:00:00 15.2 5 Noroeste 13 Noroeste 0 -- -- 78
2019-07-30 04:00:00 14.9 8 Norte 12 Noroeste 0 -- -- 80
2019-07-30 03:00:00 15.3 11 Norte 18 Noroeste 0 -- -- 78
2019-07-30 02:00:00 16.3 12 Norte 26 Norte 0 -- -- 77
2019-07-30 01:00:00 17 14 Norte 29 Noroeste 0 -- -- 75
2019-07-30 00:00:00 17.5 18 Noroeste 29 Noroeste 0 -- -- 71
2019-07-29 23:00:00 18.1 21 Noroeste 44 Norte 0 -- -- 68
2019-07-29 22:00:00 18.3 27 Norte 49 Norte 0 -- -- 69
2019-07-29 21:00:00 19.7 33 Norte 54 Norte 0 -- -- 70
2019-07-29 20:00:00 21.8 35 Norte 50 Noroeste 0 -- -- 64
2019-07-29 19:00:00 23.8 38 Norte 54 Norte 0 -- -- 57
2019-07-29 18:00:00 27.2 36 Norte 50 Norte 0 -- -- 48
2019-07-29 17:00:00 31.5 9 Norte 21 Noroeste 0 -- -- 27
2019-07-29 16:00:00 31.3 5 Nordeste 17 Oeste 0 -- -- 26
2019-07-29 15:00:00 30.1 4 Sur 17 Sudeste 0 -- -- 27
2019-07-29 14:00:00 28.8 7 Este 19 Este 0 -- -- 30
2019-07-29 13:00:00 27.5 10 Sudeste 23 Sudeste 0 -- -- 36
2019-07-29 12:00:00 25.5 10 Sudeste 18 Sur 0 -- -- 38
2019-07-29 11:00:00 22.8 5 Este 9 Nordeste 0 -- -- 44
2019-07-29 10:00:00 20.2 4 Este 13 Norte 0 -- -- 51
2019-07-29 09:00:00 16 9 Norte 12 Norte 0 -- -- 70
2019-07-29 08:00:00 12.9 8 Norte 14 Noroeste 0 -- -- 84
2019-07-29 07:00:00 12.1 10 Norte 14 Norte 0 -- -- 86
2019-07-29 06:00:00 11.6 10 Norte 14 Norte 0 -- -- 88
2019-07-29 05:00:00 11.8 9 Norte 13 Norte 0 -- -- 85
2019-07-29 04:00:00 12.6 9 Norte 14 Norte 0 -- -- 85
2019-07-29 03:00:00 13.3 3 Norte 6 Noroeste 0 -- -- 78
2019-07-29 02:00:00 14.4 3 Sudoeste 7 Noroeste 0 -- -- 74
2019-07-29 01:00:00 15.5 2 Oeste 6 Norte 0 -- -- 71
2019-07-29 00:00:00 17.1 6 Noroeste 13 Norte 0 -- -- 69
2019-07-28 23:00:00 18.9 11 Norte 24 Norte 0 -- -- 62
2019-07-28 22:00:00 20 16 Norte 32 Norte 0 -- -- 55
2019-07-28 21:00:00 21.6 22 Norte 35 Norte 0 -- -- 50
2019-07-28 20:00:00 23.2 23 Norte 48 Norte 0 -- -- 45
2019-07-28 19:00:00 23.9 24 Norte 39 Norte 0 -- -- 44
2019-07-28 18:00:00 24.7 24 Norte 36 Norte 0 -- -- 43
2019-07-28 17:00:00 24.8 19 Norte 49 Norte 0 -- -- 40
2019-07-28 16:00:00 23.7 15 Norte 30 Norte 0 -- -- 45
2019-07-28 15:00:00 23.3 18 Norte 28 Noroeste 0 -- -- 48
2019-07-28 14:00:00 21 14 Norte 27 Norte 0 -- -- 55
2019-07-28 13:00:00 20.7 13 Norte 23 Norte 0 -- -- 56
2019-07-28 12:00:00 20 10 Norte 19 Noroeste 0 -- -- 56
2019-07-28 11:00:00 19.7 12 Oeste 37 Noroeste 0 -- -- 58
2019-07-28 10:00:00 18.4 17 Noroeste 27 Oeste 0 -- -- 62
2019-07-28 09:00:00 16.7 11 Oeste 15 Oeste 0 -- -- 72
2019-07-28 08:00:00 15.3 11 Oeste 24 Oeste 0 -- -- 78
2019-07-28 07:00:00 14.7 19 Oeste 24 Oeste 0 -- -- 79
2019-07-28 06:00:00 13.7 3 Sudeste 22 Oeste 0 -- -- 83
2019-07-28 05:00:00 14.3 14 Oeste 28 Oeste 0 -- -- 81
2019-07-28 04:00:00 14.9 20 Oeste 29 Oeste 0 -- -- 78
2019-07-28 03:00:00 15.7 21 Oeste 29 Oeste 0 -- -- 74
2019-07-28 02:00:00 15.1 10 Oeste 18 Oeste 0 -- -- 75
2019-07-28 01:00:00 14.7 5 Sudoeste 21 Oeste 0 -- -- 74
2019-07-28 00:00:00 14.9 14 Oeste 23 Noroeste 0 -- -- 76
2019-07-27 23:00:00 15.3 15 Oeste 36 Noroeste 0 -- -- 74
2019-07-26 12:00:00 23.6 16 Noroeste 44 Norte 0.2 -- -- 71
2019-07-26 11:00:00 21.1 18 Noroeste 25 Noroeste 0 -- -- 84
2019-07-26 10:00:00 20.5 20 Norte 35 Norte 0 -- -- 84
2019-07-26 09:00:00 20.1 5 Oeste 33 Oeste 0 -- -- 89
2019-07-26 08:00:00 20 16 Noroeste 30 Norte 0.2 -- -- 85
2019-07-26 07:00:00 20.2 26 Norte 37 Norte 0 -- -- 80
2019-07-26 06:00:00 20.2 11 Norte 35 Norte 0 -- -- 83
2019-07-26 05:00:00 21.5 23 Noroeste 31 Noroeste 0 -- -- 73
2019-07-26 04:00:00 21.2 13 Noroeste 23 Noroeste 0 -- -- 77
2019-07-26 03:00:00 21.5 15 Norte 24 Norte 0 -- -- 78
2019-07-26 02:00:00 21.9 15 Norte 23 Norte 0 -- -- 77
2019-07-26 01:00:00 22.1 19 Norte 42 Norte 0 -- -- 76
2019-07-26 00:00:00 22.9 28 Norte 41 Norte 0 -- -- 71
2019-07-25 23:00:00 25.1 16 Norte 42 Norte 0 -- -- 63
2019-07-25 22:00:00 27.1 18 Norte 33 Norte 0 -- -- 61
2019-07-25 21:00:00 31.9 13 Sudeste 32 Sudeste 0 -- -- 31
2019-07-25 20:00:00 33.3 26 Sudeste 53 Sudeste 0 -- -- 28
2019-07-25 19:00:00 34.9 33 Sudeste 67 Sudeste 0 -- -- 28
2019-07-25 18:00:00 38.2 30 Sudeste 40 Sudeste 0 -- -- 23
2019-07-25 17:00:00 38 25 Sudeste 39 Sudeste 0 -- -- 23
2019-07-25 16:00:00 37.6 26 Sudeste 44 Sudeste 0 -- -- 23
2019-07-25 15:00:00 36.2 32 Sudeste 44 Este 0 -- -- 25
2019-07-25 14:00:00 35.4 28 Sudeste 40 Sudeste 0 -- -- 27
2019-07-25 13:00:00 34.1 28 Sudeste 40 Sudeste 0 -- -- 28
2019-07-25 12:00:00 32.4 31 Sudeste 48 Sudeste 0 -- -- 31
2019-07-25 11:00:00 30.4 26 Sudeste 36 Sudeste 0 -- -- 36
2019-07-25 10:00:00 28 20 Sudeste 28 Sudeste 0 -- -- 42
2019-07-25 09:00:00 25.9 14 Sudeste 34 Sudeste 0 -- -- 48
2019-07-25 08:00:00 24.6 17 Sudeste 28 Sudeste 0 -- -- 51
2019-07-25 07:00:00 23.7 16 Sudeste 31 Sudeste 0 -- -- 53
2019-07-25 06:00:00 23.5 16 Sudeste 22 Sudeste 0 -- -- 53
2019-07-25 05:00:00 26 18 Sudeste 24 Sudeste 0 -- -- 46
2019-07-25 04:00:00 26.3 19 Sudeste 34 Sudeste 0 -- -- 46
2019-07-25 03:00:00 26.7 21 Sudeste 29 Sudeste 0 -- -- 44
2019-07-25 02:00:00 26.3 5 Sur 13 Sudeste 0 -- -- 43
2019-07-25 01:00:00 26.8 9 Sudeste 14 Sudeste 0 -- -- 41
2019-07-25 00:00:00 28.4 4 Este 9 Sudeste 0 -- -- 37
2019-07-24 23:00:00 28.7 7 Sudeste 21 Sudeste 0 -- -- 35
2019-07-24 22:00:00 30.7 16 Sudeste 26 Sudeste 0 -- -- 32
2019-07-24 21:00:00 32.6 13 Sudeste 30 Sudeste 0 -- -- 28
2019-07-24 20:00:00 35.4 28 Sudeste 49 Sudeste 0 -- -- 23
2019-07-24 19:00:00 37.8 25 Sudeste 39 Sudeste 0 -- -- 21
2019-07-24 18:00:00 38.5 27 Sudeste 40 Sudeste 0 -- -- 20
2019-07-24 17:00:00 38.4 25 Este 36 Sudeste 0 -- -- 21
2019-07-24 16:00:00 37.1 19 Sudeste 33 Sudeste 0 -- -- 24
2019-07-24 15:00:00 35.8 22 Sudeste 31 Sudeste 0 -- -- 26
2019-07-24 14:00:00 34.2 14 Sudeste 29 Sudeste 0 -- -- 29
2019-07-24 13:00:00 31.1 14 Sudeste 24 Sur 0 -- -- 37
2019-07-24 12:00:00 31.5 12 Sudeste 23 Sudeste 0 -- -- 36
2019-07-24 11:00:00 28.8 8 Este 15 Este 0 -- -- 41
2019-07-24 10:00:00 25.3 4 Nordeste 7 Nordeste 0 -- -- 52
2019-07-24 09:00:00 21.6 4 Noroeste 14 Noroeste 0 -- -- 64
2019-07-24 08:00:00 19.9 6 Norte 9 Norte 0 -- -- 70
2019-07-24 07:00:00 19.6 6 Norte 9 Norte 0 -- -- 68
2019-07-24 06:00:00 19.5 4 Oeste 9 Nordeste 0 -- -- 69
2019-07-24 05:00:00 21.1 4 Oeste 12 Nordeste 0 -- -- 64
2019-07-24 04:00:00 22.8 4 Oeste 14 Norte 0 -- -- 55
2019-07-24 03:00:00 24.7 11 Noroeste 20 Norte 0 -- -- 52
2019-07-24 02:00:00 25.7 3 Oeste 14 Norte 0 -- -- 46
2019-07-24 01:00:00 26.2 9 Noroeste 16 Oeste 0 -- -- 44
2019-07-24 00:00:00 26.9 12 Norte 25 Norte 0 -- -- 47
2019-07-23 23:00:00 26.9 19 Noroeste 33 Noroeste 0 -- -- 45
2019-07-23 22:00:00 27.5 19 Norte 33 Norte 0 -- -- 47
2019-07-23 21:00:00 27.7 15 Sudoeste 62 Noroeste 0.2 -- -- 43
2019-07-23 20:00:00 35.6 9 Sur 37 Sudoeste 0 -- -- 23
2019-07-23 19:00:00 38.4 19 Sudeste 30 Este 0 -- -- 19
2019-07-23 18:00:00 38.5 17 Sudeste 31 Sudeste 0 -- -- 19
2019-07-23 17:00:00 38.9 19 Sudeste 31 Sur 0 -- -- 20
2019-07-23 16:00:00 38.4 21 Sudeste 35 Este 0 -- -- 20
2019-07-23 15:00:00 37.1 18 Sudeste 27 Sudeste 0 -- -- 21
2019-07-23 14:00:00 35.8 20 Sur 30 Sudeste 0 -- -- 22
2019-07-23 13:00:00 35 18 Sudeste 30 Sudeste 0 -- -- 23
2019-07-23 12:00:00 33.1 21 Sudeste 29 Sudeste 0 -- -- 29
2019-07-23 11:00:00 30.1 18 Sudeste 25 Sudeste 0 -- -- 34
2019-07-23 10:00:00 28.2 10 Sur 14 Sur 0 -- -- 37
2019-07-23 09:00:00 23.5 3 Noroeste 6 Noroeste 0 -- -- 49
2019-07-23 08:00:00 20.4 6 Noroeste 12 Noroeste 0 -- -- 56
2019-07-23 07:00:00 20 2 Noroeste 19 Noroeste 0 -- -- 55
2019-07-23 06:00:00 20.9 5 Nordeste 13 Este 0 -- -- 59
2019-07-23 05:00:00 23.1 7 Sudeste 11 Sudeste 0 -- -- 45
2019-07-23 04:00:00 24.9 2 Sur 18 Sudeste 0 -- -- 42
2019-07-23 03:00:00 26.6 9 Este 32 Sudeste 0 -- -- 40
2019-07-23 02:00:00 27.8 22 Sudeste 29 Sudeste 0 -- -- 38
2019-07-23 01:00:00 26.7 3 Sur 17 Sudeste 0 -- -- 41
2019-07-23 00:00:00 27.1 10 Sudeste 16 Sudeste 0 -- -- 40
2019-07-22 23:00:00 28.5 6 Sudeste 14 Sudeste 0 -- -- 37
2019-07-22 22:00:00 30.5 12 Sudeste 18 Sudeste 0 -- -- 33
2019-07-22 21:00:00 33.6 12 Sudeste 22 Sudeste 0 -- -- 29
2019-07-22 20:00:00 36.5 19 Sudeste 33 Sudeste 0 -- -- 24
2019-07-22 19:00:00 37.5 21 Sudeste 33 Este 0 -- -- 22
2019-07-22 18:00:00 37.8 20 Sudeste 37 Sudeste 0 -- -- 22
2019-07-22 17:00:00 37.9 23 Sudeste 35 Sudeste 0 -- -- 21
2019-07-22 16:00:00 37.3 19 Sudeste 28 Sudeste 0 -- -- 24
2019-07-22 15:00:00 35.8 16 Sudeste 28 Sur 0 -- -- 28
2019-07-22 14:00:00 34.5 16 Sur 32 Sudeste 0 -- -- 31
2019-07-22 13:00:00 32.7 16 Sudeste 32 Sudeste 0 -- -- 34
2019-07-22 12:00:00 30.9 21 Sudeste 31 Sudeste 0 -- -- 36
2019-07-22 11:00:00 29.4 22 Sudeste 31 Sudeste 0 -- -- 38
2019-07-22 10:00:00 26.8 13 Sudeste 17 Este 0 -- -- 52
2019-07-22 09:00:00 23.1 6 Este 17 Norte 0 -- -- 70
2019-07-22 08:00:00 20.9 10 Norte 19 Norte 0 -- -- 81
2019-07-22 07:00:00 20.7 9 Norte 20 Norte 0 -- -- 80
2019-07-22 06:00:00 21.2 13 Norte 24 Noroeste 0 -- -- 78
2019-07-22 05:00:00 20.7 8 Noroeste 24 Noroeste 0 -- -- 81
2019-07-22 04:00:00 21.5 12 Norte 26 Norte 0 -- -- 78
2019-07-22 03:00:00 21.9 18 Norte 33 Norte 0 -- -- 77
2019-07-22 02:00:00 22.3 12 Norte 22 Norte 0 -- -- 78
2019-07-22 01:00:00 22.6 12 Oeste 33 Noroeste 0 -- -- 76
2019-07-22 00:00:00 23.3 20 Noroeste 37 Norte 0 -- -- 73
2019-07-21 23:00:00 23.8 24 Norte 36 Norte 0 -- -- 71
2019-07-21 22:00:00 24.2 21 Norte 47 Norte 0 -- -- 69
2019-07-21 21:00:00 25.4 29 Norte 42 Norte 0 -- -- 66
2019-07-21 20:00:00 28.5 28 Norte 40 Norte 0 -- -- 57
2019-07-21 19:00:00 32.7 21 Norte 30 Norte 0 -- -- 45
2019-07-21 18:00:00 34.4 9 Sudeste 23 Sudeste 0 -- -- 33
2019-07-21 17:00:00 34.3 14 Sudeste 24 Sudeste 0 -- -- 33
2019-07-21 16:00:00 33.1 15 Sudeste 28 Sur 0 -- -- 35
2019-07-21 15:00:00 32.3 17 Sudeste 33 Sudeste 0 -- -- 38
2019-07-21 14:00:00 31.3 21 Sudeste 35 Sudeste 0 -- -- 41
2019-07-21 13:00:00 29.1 17 Sudeste 32 Sudeste 0 -- -- 47
2019-07-21 12:00:00 26.7 10 Sudeste 22 Sudeste 0 -- -- 53
2019-07-21 11:00:00 25.8 13 Sudeste 19 Sudeste 0 -- -- 55
2019-07-21 10:00:00 23.4 6 Norte 18 Noroeste 0 -- -- 64
2019-07-21 09:00:00 21 14 Norte 19 Noroeste 0 -- -- 75
2019-07-21 08:00:00 19 8 Noroeste 14 Noroeste 0 -- -- 85
2019-07-21 07:00:00 17.9 9 Noroeste 15 Noroeste 0 -- -- 86
2019-07-21 06:00:00 18.2 8 Noroeste 13 Noroeste 0 -- -- 85
2019-07-21 05:00:00 18.8 8 Noroeste 15 Norte 0 -- -- 83
2019-07-21 04:00:00 19.1 10 Noroeste 20 Noroeste 0 -- -- 82
2019-07-21 03:00:00 19.4 14 Noroeste 23 Noroeste 0 -- -- 80
2019-07-21 02:00:00 19.9 16 Norte 29 Norte 0 -- -- 79
2019-07-21 01:00:00 20.5 18 Norte 34 Noroeste 0 -- -- 77
2019-07-21 00:00:00 20.8 24 Norte 41 Norte 0 -- -- 75
2019-07-20 23:00:00 21.3 27 Norte 42 Norte 0 -- -- 73
2019-07-20 22:00:00 22 23 Norte 42 Norte 0 -- -- 71
2019-07-20 21:00:00 23.4 24 Norte 58 Norte 0 -- -- 68
2019-07-20 20:00:00 24.9 32 Norte 63 Norte 0 -- -- 63
2019-07-20 19:00:00 26.8 33 Norte 46 Norte 0 -- -- 57
2019-07-20 18:00:00 29.2 29 Norte 49 Norte 0 -- -- 52
2019-07-20 17:00:00 31.9 28 Norte 38 Norte 0 -- -- 46
2019-07-20 16:00:00 33.7 7 Sur 24 Este 0 -- -- 37
2019-07-20 15:00:00 32.9 9 Sur 27 Sur 0 -- -- 39
2019-07-20 14:00:00 31.5 10 Sudeste 24 Sudeste 0 -- -- 41
2019-07-20 13:00:00 30 13 Sudeste 31 Sudeste 0 -- -- 47
2019-07-20 12:00:00 28.3 16 Sudeste 32 Sudeste 0 -- -- 52
2019-07-20 11:00:00 26.4 12 Este 28 Sudeste 0 -- -- 56
2019-07-20 10:00:00 24.9 18 Sudeste 25 Este 0 -- -- 58
2019-07-20 09:00:00 23.1 7 Este 13 Este 0 -- -- 62
2019-07-20 08:00:00 21.3 3 Nordeste 9 Este 0 -- -- 67
2019-07-20 07:00:00 20 5 Nordeste 17 Este 0 -- -- 67
2019-07-20 06:00:00 20.2 10 Sudeste 15 Este 0 -- -- 66
2019-07-20 05:00:00 20.7 8 Sudeste 18 Sudeste 0 -- -- 66
2019-07-20 04:00:00 21.9 4 Sudeste 15 Sudeste 0 -- -- 61
2019-07-20 03:00:00 23.4 8 Sudeste 19 Este 0 -- -- 59
2019-07-20 02:00:00 25.1 15 Sudeste 22 Sudeste 0 -- -- 55
2019-07-20 01:00:00 26.3 6 Este 31 Sudeste 0 -- -- 53
2019-07-20 00:00:00 27.3 17 Sudeste 27 Sudeste 0 -- -- 48
2019-07-19 23:00:00 27.2 10 Sudeste 17 Sudeste 0 -- -- 47
2019-07-19 22:00:00 29 11 Sudeste 17 Sudeste 0 -- -- 42
2019-07-19 21:00:00 30.8 10 Sudeste 21 Sudeste 0 -- -- 37
2019-07-19 20:00:00 32.6 15 Sudeste 24 Sudeste 0 -- -- 34
2019-07-19 19:00:00 34.1 17 Sudeste 49 Sudeste 0 -- -- 32
2019-07-19 18:00:00 33.6 12 Sudeste 25 Sudeste 0 -- -- 31
2019-07-19 17:00:00 33 13 Este 27 Este 0 -- -- 31
2019-07-19 16:00:00 32.7 16 Sudeste 45 Sudeste 0 -- -- 29
2019-07-19 15:00:00 31.1 17 Sudeste 36 Sudeste 0 -- -- 32
2019-07-19 14:00:00 29.6 17 Sudeste 32 Sudeste 0 -- -- 39
2019-07-19 13:00:00 27.7 19 Sudeste 30 Sudeste 0 -- -- 45
2019-07-19 12:00:00 25.1 12 Sudeste 19 Sudeste 0 -- -- 49
2019-07-19 11:00:00 22.8 4 Nordeste 14 Norte 0 -- -- 48
2019-07-19 10:00:00 20.2 9 Norte 15 Noroeste 0 -- -- 56
2019-07-19 09:00:00 17.8 7 Noroeste 11 Noroeste 0 -- -- 60
2019-07-19 08:00:00 14.3 5 Oeste 12 Noroeste 0 -- -- 74
2019-07-19 07:00:00 12.8 11 Noroeste 17 Noroeste 0 -- -- 77
2019-07-19 06:00:00 12.7 8 Noroeste 18 Norte 0 -- -- 78
2019-07-19 05:00:00 13.1 12 Noroeste 16 Norte 0 -- -- 78
2019-07-19 04:00:00 14.5 2 Nordeste 12 Norte 0 -- -- 73
2019-07-19 03:00:00 15.2 9 Norte 13 Noroeste 0 -- -- 74
2019-07-19 02:00:00 16.7 3 Norte 12 Noroeste 0 -- -- 62
2019-07-19 01:00:00 17.1 7 Noroeste 15 Noroeste 0 -- -- 62
2019-07-19 00:00:00 17.8 4 Noroeste 18 Norte 0 -- -- 58